createdAt,value
2017-10-05T00:00:55.932Z,33.76
2017-10-05T00:03:31.281Z,33.76
2017-10-05T00:06:05.409Z,33.74
2017-10-05T00:08:41.398Z,33.76
2017-10-05T00:11:13.239Z,33.74
2017-10-05T00:13:45.890Z,33.73
2017-10-05T00:16:34.994Z,33.73
2017-10-05T00:19:09.236Z,33.72
2017-10-05T00:21:44.428Z,33.68
2017-10-05T00:24:22.523Z,33.70
2017-10-05T00:26:56.124Z,33.73
2017-10-05T00:29:31.116Z,33.71
2017-10-05T00:32:14.324Z,33.74
2017-10-05T00:34:46.958Z,33.73
2017-10-05T00:37:20.112Z,33.78
2017-10-05T00:39:52.156Z,33.82
2017-10-05T00:42:25.077Z,33.85
2017-10-05T00:45:07.147Z,33.80
2017-10-05T00:47:38.757Z,33.81
2017-10-05T00:50:17.465Z,33.75
2017-10-05T00:52:49.943Z,33.78
2017-10-05T00:55:29.940Z,33.77
2017-10-05T00:58:01.889Z,33.75
2017-10-05T01:00:35.770Z,33.76
2017-10-05T01:03:14.204Z,33.75
2017-10-05T01:05:48.301Z,33.73
2017-10-05T01:08:19.965Z,33.71
2017-10-05T01:10:53.840Z,33.71
2017-10-05T01:13:25.946Z,33.72
2017-10-05T01:15:57.385Z,33.71
2017-10-05T01:18:30.491Z,33.70
2017-10-05T01:21:04.898Z,33.65
2017-10-05T01:23:37.957Z,33.67
2017-10-05T01:26:11.057Z,33.69
2017-10-05T01:28:42.376Z,33.66
2017-10-05T01:31:14.124Z,33.67
2017-10-05T01:33:45.635Z,33.66
2017-10-05T01:36:18.850Z,33.68
2017-10-05T01:38:50.679Z,33.66
2017-10-05T01:41:22.097Z,33.65
2017-10-05T01:43:54.261Z,33.61
2017-10-05T01:46:26.701Z,33.61
2017-10-05T01:49:00.544Z,33.59
2017-10-05T01:51:36.446Z,33.57
2017-10-05T01:54:09.827Z,33.58
2017-10-05T01:56:45.564Z,33.53
2017-10-05T01:59:21.452Z,33.59
2017-10-05T02:01:54.658Z,33.56
2017-10-05T02:04:27.660Z,33.58
2017-10-05T02:06:58.580Z,33.55
2017-10-05T02:09:29.829Z,33.55
2017-10-05T02:12:22.973Z,33.48
2017-10-05T02:15:00.117Z,33.56
2017-10-05T02:17:32.801Z,33.57
2017-10-05T02:20:11.276Z,33.57
2017-10-05T02:22:44.172Z,33.60
2017-10-05T02:25:15.801Z,33.58
2017-10-05T02:27:48.616Z,33.51
2017-10-05T02:30:22.318Z,33.41
2017-10-05T02:32:54.285Z,33.51
2017-10-05T02:35:25.702Z,33.50
2017-10-05T02:38:00.038Z,33.49
2017-10-05T02:40:30.979Z,33.46
2017-10-05T02:43:03.404Z,33.46
2017-10-05T02:45:41.202Z,33.42
2017-10-05T02:48:15.490Z,33.46
2017-10-05T02:50:47.154Z,33.44
2017-10-05T02:53:18.864Z,33.42
2017-10-05T02:55:50.650Z,33.41
2017-10-05T02:58:23.256Z,33.40
2017-10-05T03:00:54.449Z,33.41
2017-10-05T03:03:27.880Z,33.39
2017-10-05T03:05:59.066Z,33.38
2017-10-05T03:08:30.081Z,33.36
2017-10-05T03:11:01.128Z,33.37
2017-10-05T03:13:34.906Z,33.38
2017-10-05T03:16:05.744Z,33.35
2017-10-05T03:18:37.250Z,33.30
2017-10-05T03:21:08.421Z,33.34
2017-10-05T03:23:39.379Z,33.35
2017-10-05T03:26:13.534Z,33.35
2017-10-05T03:28:46.369Z,33.32
2017-10-05T03:31:18.858Z,33.29
2017-10-05T03:37:23.878Z,33.32
2017-10-05T03:39:55.634Z,33.33
2017-10-05T03:42:26.898Z,33.33
2017-10-05T03:45:00.870Z,33.35
2017-10-05T03:47:32.606Z,33.33
2017-10-05T03:50:03.566Z,33.33
2017-10-05T03:52:34.493Z,33.32
2017-10-05T03:55:08.005Z,33.32
2017-10-05T03:57:39.534Z,33.32
2017-10-05T04:00:13.057Z,33.31
2017-10-05T04:02:44.029Z,33.32
2017-10-05T04:05:17.809Z,33.31
2017-10-05T04:07:50.265Z,33.29
2017-10-05T04:10:22.402Z,33.25
2017-10-05T04:12:55.474Z,33.28
2017-10-05T04:15:26.641Z,33.28
2017-10-05T04:17:57.597Z,33.28
2017-10-05T04:20:31.071Z,33.25
2017-10-05T04:23:04.039Z,33.25
2017-10-05T04:25:35.314Z,33.28
2017-10-05T04:28:07.069Z,33.28
2017-10-05T04:30:38.281Z,33.29
2017-10-05T04:33:15.378Z,33.27
2017-10-05T04:35:49.413Z,33.29
2017-10-05T04:38:21.190Z,33.29
2017-10-05T04:40:56.339Z,33.29
2017-10-05T04:43:27.549Z,33.26
2017-10-05T04:45:59.531Z,33.21
2017-10-05T04:48:36.121Z,33.22
2017-10-05T04:51:07.991Z,33.27
2017-10-05T04:53:38.850Z,33.25
2017-10-05T04:56:13.498Z,33.26
2017-10-05T04:58:46.025Z,33.26
2017-10-05T05:01:18.981Z,33.24
2017-10-05T05:03:52.614Z,33.24
2017-10-05T05:06:24.164Z,33.25
2017-10-05T05:08:59.188Z,33.27
2017-10-05T05:11:34.498Z,33.26
2017-10-05T05:14:10.756Z,33.26
2017-10-05T05:16:42.269Z,33.27
2017-10-05T05:19:15.332Z,33.26
2017-10-05T05:21:50.496Z,33.20
2017-10-05T05:24:22.501Z,33.24
2017-10-05T05:26:54.356Z,33.24
2017-10-05T05:29:26.618Z,33.26
2017-10-05T05:31:58.081Z,33.25
2017-10-05T05:34:31.182Z,33.25
2017-10-05T05:37:02.506Z,33.25
2017-10-05T05:39:34.886Z,33.24
2017-10-05T05:42:13.802Z,33.22
2017-10-05T05:44:51.965Z,33.17
2017-10-05T05:47:23.158Z,33.20
2017-10-05T05:49:56.239Z,33.20
2017-10-05T05:52:28.061Z,33.22
2017-10-05T05:55:01.700Z,33.22
2017-10-05T05:57:34.317Z,33.21
2017-10-05T06:00:11.545Z,33.19
2017-10-05T06:02:43.623Z,33.21
2017-10-05T06:05:17.314Z,33.19
2017-10-05T06:07:48.991Z,33.21
2017-10-05T06:10:20.238Z,33.18
2017-10-05T06:12:53.113Z,33.14
2017-10-05T06:15:24.445Z,33.17
2017-10-05T06:17:56.081Z,33.17
2017-10-05T06:20:29.048Z,33.18
2017-10-05T06:23:03.759Z,33.17
2017-10-05T06:25:36.368Z,33.19
2017-10-05T06:28:13.333Z,33.16
2017-10-05T06:30:44.392Z,33.18
2017-10-05T06:33:47.893Z,33.10
2017-10-05T06:36:18.792Z,33.19
2017-10-05T06:38:51.943Z,33.19
2017-10-05T06:41:25.973Z,33.17
2017-10-05T06:44:02.271Z,33.21
2017-10-05T06:46:33.813Z,33.19
2017-10-05T06:49:05.210Z,33.19
2017-10-05T06:51:36.187Z,33.18
2017-10-05T06:54:07.805Z,33.19
2017-10-05T06:56:38.711Z,33.20
2017-10-05T06:59:11.603Z,33.19
2017-10-05T07:01:43.561Z,33.18
2017-10-05T07:04:20.492Z,33.21
2017-10-05T07:06:51.476Z,33.21
2017-10-05T07:09:22.974Z,33.25
2017-10-05T07:11:54.086Z,33.25
2017-10-05T07:14:26.028Z,33.27
2017-10-05T07:16:57.707Z,33.27
2017-10-05T07:19:29.804Z,33.25
2017-10-05T07:22:02.955Z,33.27
2017-10-05T07:24:36.266Z,33.27
2017-10-05T07:27:08.177Z,33.27
2017-10-05T07:29:42.118Z,33.27
2017-10-05T07:32:16.669Z,33.27
2017-10-05T07:34:50.423Z,33.24
2017-10-05T07:37:22.079Z,33.24
2017-10-05T07:39:54.552Z,33.24
2017-10-05T07:42:25.530Z,33.23
2017-10-05T07:44:57.788Z,33.24
2017-10-05T07:47:30.629Z,33.23
2017-10-05T07:50:01.648Z,33.23
2017-10-05T07:52:34.831Z,33.20
2017-10-05T07:55:07.984Z,33.20
2017-10-05T07:57:39.146Z,33.20
2017-10-05T08:00:12.202Z,33.20
2017-10-05T08:02:43.671Z,33.20
2017-10-05T08:05:17.248Z,33.19
2017-10-05T08:07:49.062Z,33.19
2017-10-05T08:10:21.454Z,33.16
2017-10-05T08:12:53.643Z,33.15
2017-10-05T08:15:26.901Z,33.16
2017-10-05T08:17:59.189Z,33.14
2017-10-05T08:20:31.600Z,33.17
2017-10-05T08:23:06.134Z,33.17
2017-10-05T08:25:39.834Z,33.16
2017-10-05T08:28:16.207Z,33.18
2017-10-05T08:30:50.127Z,33.18
2017-10-05T08:33:23.405Z,33.20
2017-10-05T08:35:56.938Z,33.19
2017-10-05T08:38:32.794Z,33.23
2017-10-05T08:41:13.747Z,33.22
2017-10-05T08:43:46.231Z,33.22
2017-10-05T08:46:20.567Z,33.22
2017-10-05T08:48:55.707Z,33.23
2017-10-05T08:51:30.763Z,33.22
2017-10-05T08:54:03.168Z,33.21
2017-10-05T08:56:37.688Z,33.22
2017-10-05T08:59:11.702Z,33.23
2017-10-05T09:01:49.653Z,33.22
2017-10-05T09:04:22.690Z,33.20
2017-10-05T09:06:55.855Z,33.22
2017-10-05T09:09:27.759Z,33.23
2017-10-05T09:12:01.793Z,33.21
2017-10-05T09:14:33.020Z,33.21
2017-10-05T09:17:07.579Z,33.20
2017-10-05T09:19:39.141Z,33.22
2017-10-05T09:22:16.316Z,33.20
2017-10-05T09:24:51.909Z,33.18
2017-10-05T09:27:27.659Z,33.18
2017-10-05T09:30:01.556Z,33.20
2017-10-05T09:32:35.146Z,33.21
2017-10-05T09:35:11.980Z,33.22
2017-10-05T09:37:54.151Z,33.21
2017-10-05T09:40:28.508Z,33.21
2017-10-05T09:43:00.328Z,33.20
2017-10-05T09:45:36.260Z,33.21
2017-10-05T09:48:15.236Z,33.22
2017-10-05T09:50:49.699Z,33.21
2017-10-05T09:53:21.267Z,33.21
2017-10-05T09:55:56.583Z,33.21
2017-10-05T09:58:29.746Z,33.22
2017-10-05T10:01:08.869Z,33.21
2017-10-05T10:03:41.222Z,33.15
2017-10-05T10:06:13.208Z,33.13
2017-10-05T10:08:50.387Z,33.13
2017-10-05T10:11:27.535Z,33.13
2017-10-05T10:14:09.803Z,33.13
2017-10-05T10:16:44.100Z,33.11
2017-10-05T10:19:16.645Z,33.10
2017-10-05T10:21:53.527Z,33.10
2017-10-05T10:24:26.997Z,33.09
2017-10-05T10:27:14.341Z,33.09
2017-10-05T10:30:07.237Z,33.07
2017-10-05T10:32:46.435Z,33.11
2017-10-05T10:35:25.308Z,33.11
2017-10-05T10:38:06.037Z,33.09
2017-10-05T10:40:48.982Z,33.07
2017-10-05T10:43:30.720Z,33.11
2017-10-05T10:46:12.856Z,33.11
2017-10-05T10:48:48.366Z,33.17
2017-10-05T10:51:24.396Z,33.18
2017-10-05T10:54:02.751Z,33.21
2017-10-05T10:56:38.620Z,33.19
2017-10-05T10:59:11.005Z,33.24
2017-10-05T11:01:47.763Z,33.22
2017-10-05T11:04:21.145Z,33.24
2017-10-05T11:06:55.374Z,33.24
2017-10-05T11:09:35.735Z,33.26
2017-10-05T11:12:12.763Z,33.25
2017-10-05T11:14:50.088Z,33.26
2017-10-05T11:17:25.311Z,33.27
2017-10-05T11:19:58.400Z,33.27
2017-10-05T11:22:32.544Z,33.28
2017-10-05T11:25:07.062Z,33.28
2017-10-05T11:27:45.708Z,33.32
2017-10-05T11:30:22.748Z,33.30
2017-10-05T11:33:07.241Z,33.33
2017-10-05T11:35:41.811Z,33.33
2017-10-05T11:38:22.778Z,33.35
2017-10-05T11:41:04.669Z,33.36
2017-10-05T11:43:38.892Z,33.36
2017-10-05T11:46:11.925Z,33.34
2017-10-05T11:48:44.581Z,33.36
2017-10-05T11:51:19.986Z,33.38
2017-10-05T11:53:51.599Z,33.40
2017-10-05T11:56:27.462Z,33.41
2017-10-05T11:59:07.862Z,33.40
2017-10-05T12:04:23.964Z,33.38
2017-10-05T12:07:04.732Z,33.38
2017-10-05T12:09:43.109Z,33.37
2017-10-05T12:12:23.060Z,33.37
2017-10-05T12:15:01.228Z,33.40
2017-10-05T12:17:38.906Z,33.41
2017-10-05T12:20:19.209Z,33.40
2017-10-05T12:22:56.695Z,33.39
2017-10-05T12:28:19.968Z,33.40
2017-10-05T12:30:58.775Z,33.39
2017-10-05T12:33:37.669Z,33.42
2017-10-05T12:36:15.093Z,33.43
2017-10-05T12:38:48.316Z,33.42
2017-10-05T12:41:28.258Z,33.43
2017-10-05T12:44:08.269Z,33.42
2017-10-05T12:46:42.763Z,33.40
2017-10-05T12:49:22.491Z,33.42
2017-10-05T12:51:58.166Z,33.38
2017-10-05T12:54:33.671Z,33.42
2017-10-05T12:57:12.738Z,33.43
2017-10-05T12:59:58.606Z,33.44
2017-10-05T13:02:36.800Z,33.43
2017-10-05T13:05:19.379Z,33.45
2017-10-05T13:10:50.961Z,33.45
2017-10-05T13:13:25.703Z,33.46
2017-10-05T13:16:00.429Z,33.46
2017-10-05T13:21:22.127Z,33.44
2017-10-05T13:23:57.843Z,33.46
2017-10-05T13:32:28.398Z,33.48
2017-10-05T13:35:06.765Z,33.52
2017-10-05T13:37:56.206Z,33.49
2017-10-05T13:40:35.531Z,33.47
2017-10-05T13:46:11.778Z,33.47
2017-10-05T13:48:54.555Z,33.46
2017-10-05T13:51:32.460Z,33.42
2017-10-05T13:54:08.189Z,33.48
2017-10-05T13:56:42.317Z,33.48
2017-10-05T13:59:15.712Z,33.48
2017-10-05T14:01:50.145Z,33.48
2017-10-05T14:04:29.177Z,33.48
2017-10-05T14:07:10.794Z,33.49
2017-10-05T14:10:21.055Z,33.50
2017-10-05T14:13:00.468Z,33.49
2017-10-05T14:18:27.296Z,33.50
2017-10-05T14:21:11.335Z,33.50
2017-10-05T14:23:51.805Z,33.52
2017-10-05T14:26:33.571Z,33.54
2017-10-05T14:29:13.682Z,33.53
2017-10-05T14:32:02.355Z,33.56
2017-10-05T14:37:30.317Z,33.55
2017-10-05T14:40:14.582Z,33.56
2017-10-05T14:43:03.182Z,33.57
2017-10-05T14:45:43.526Z,33.57
2017-10-05T14:48:27.476Z,33.58
2017-10-05T14:51:04.833Z,33.59
2017-10-05T14:56:26.665Z,33.61
2017-10-05T14:59:12.038Z,33.60
2017-10-05T15:01:50.365Z,33.61
2017-10-05T15:07:24.098Z,33.61
2017-10-05T15:10:05.485Z,33.63
2017-10-05T15:12:50.415Z,33.63
2017-10-05T15:15:39.028Z,33.63
2017-10-05T15:18:25.129Z,33.62
2017-10-05T15:21:13.722Z,33.62
2017-10-05T15:23:52.300Z,33.62
2017-10-05T15:26:37.692Z,33.62
2017-10-05T15:29:20.080Z,33.61
2017-10-05T15:32:02.257Z,33.62
2017-10-05T15:34:45.539Z,33.63
2017-10-05T15:45:34.976Z,33.68
2017-10-05T15:48:22.446Z,33.73
2017-10-05T15:51:04.778Z,33.74
2017-10-05T15:53:53.506Z,33.74
2017-10-05T16:05:40.828Z,33.74
2017-10-05T16:08:32.100Z,33.74
2017-10-05T16:11:23.950Z,33.71
2017-10-05T16:14:05.191Z,33.72
2017-10-05T16:16:50.139Z,33.74
2017-10-05T16:19:38.172Z,33.74
2017-10-05T16:22:21.331Z,33.78
2017-10-05T16:32:19.431Z,33.50
2017-10-05T16:35:31.752Z,33.51
2017-10-05T16:41:37.238Z,33.47
2017-10-05T16:49:31.898Z,33.50
2017-10-05T16:57:18.828Z,33.48
2017-10-05T17:00:21.847Z,33.54
2017-10-05T17:09:33.260Z,33.81
2017-10-05T17:12:14.259Z,33.84
2017-10-05T17:14:49.481Z,33.88
2017-10-05T17:17:25.070Z,33.88
2017-10-05T17:20:09.608Z,33.90
2017-10-05T17:22:42.928Z,33.89
2017-10-05T17:25:26.444Z,33.86
2017-10-05T17:28:18.084Z,33.91
2017-10-05T17:30:58.111Z,33.89
2017-10-05T17:33:38.604Z,33.90
2017-10-05T17:36:13.301Z,33.87
2017-10-05T17:38:57.904Z,33.91
2017-10-05T17:41:51.577Z,33.90
2017-10-05T17:44:33.840Z,33.86
2017-10-05T17:47:36.960Z,33.79
2017-10-05T17:56:30.656Z,33.72
2017-10-05T17:59:09.267Z,33.80
2017-10-05T18:01:46.929Z,33.88
2017-10-05T18:04:29.950Z,33.88
2017-10-05T18:07:11.894Z,33.87
2017-10-05T18:09:53.441Z,33.87
2017-10-05T18:12:32.938Z,33.88
2017-10-05T18:15:21.896Z,33.88
2017-10-05T18:18:13.799Z,33.88
2017-10-05T18:20:50.251Z,33.89
2017-10-05T18:23:35.383Z,33.89
2017-10-05T18:26:13.979Z,33.91
2017-10-05T18:28:50.196Z,33.88
2017-10-05T18:31:28.772Z,33.88
2017-10-05T18:39:45.641Z,33.88
2017-10-05T18:45:29.252Z,33.89
2017-10-05T18:48:26.022Z,33.89
2017-10-05T18:53:51.788Z,33.90
2017-10-05T18:56:34.080Z,33.90
2017-10-05T18:59:12.235Z,33.89
2017-10-05T19:04:55.447Z,33.89
2017-10-05T19:10:39.929Z,33.88
2017-10-05T19:16:18.257Z,33.87
2017-10-05T19:19:32.129Z,33.80
2017-10-05T19:26:31.059Z,33.62
2017-10-05T19:29:07.885Z,33.70
2017-10-05T19:31:44.185Z,33.76
2017-10-05T19:34:19.120Z,33.82
2017-10-05T19:36:55.035Z,33.84
2017-10-05T19:39:36.185Z,33.86
2017-10-05T19:42:15.235Z,33.88
2017-10-05T19:44:58.262Z,33.85
2017-10-05T19:47:37.918Z,33.86
2017-10-05T19:50:19.232Z,33.90
2017-10-05T19:52:55.539Z,33.90
2017-10-05T19:55:30.874Z,33.88
2017-10-05T20:01:07.595Z,33.90
2017-10-05T20:03:45.553Z,33.88
2017-10-05T20:06:21.752Z,33.85
2017-10-05T20:09:06.319Z,33.86
2017-10-05T20:11:53.077Z,33.85
2017-10-05T20:14:44.127Z,33.86
2017-10-05T20:17:30.270Z,33.86
2017-10-05T20:20:18.618Z,33.88
2017-10-05T20:23:10.965Z,33.88
2017-10-05T20:25:57.163Z,33.89
2017-10-05T20:28:44.523Z,33.91
2017-10-05T20:31:38.077Z,33.90
2017-10-05T20:37:02.761Z,33.90
2017-10-05T20:39:37.127Z,33.89
2017-10-05T20:45:26.292Z,33.89
2017-10-05T20:48:08.138Z,33.88
2017-10-05T20:50:45.107Z,33.90
2017-10-05T20:53:31.557Z,33.91
2017-10-05T20:56:10.878Z,33.90
2017-10-05T20:58:51.907Z,33.90
2017-10-05T21:01:35.122Z,33.90
2017-10-05T21:04:17.620Z,33.89
2017-10-05T21:09:43.667Z,33.90
2017-10-05T21:12:26.672Z,33.89
2017-10-05T21:15:15.646Z,33.89
2017-10-05T21:20:56.117Z,33.89
2017-10-05T21:23:44.542Z,33.88
2017-10-05T21:26:42.809Z,33.89
2017-10-05T21:29:26.145Z,33.89
2017-10-05T21:32:18.347Z,33.89
2017-10-05T21:35:05.307Z,33.87
2017-10-05T21:37:45.709Z,33.88
2017-10-05T21:40:26.789Z,33.86
2017-10-05T21:43:11.783Z,33.86
2017-10-05T21:46:00.188Z,33.86
2017-10-05T21:50:47.492Z,33.85
2017-10-05T21:53:26.462Z,33.84
2017-10-05T21:56:07.227Z,33.88
2017-10-05T21:58:52.239Z,33.90
2017-10-05T22:01:38.353Z,33.90
2017-10-05T22:04:22.210Z,33.90
2017-10-05T22:06:59.839Z,33.88
2017-10-05T22:09:50.268Z,33.90
2017-10-05T22:12:34.569Z,33.88
2017-10-05T22:15:13.700Z,33.87
2017-10-05T22:17:50.298Z,33.88
2017-10-05T22:20:38.851Z,33.88
2017-10-05T22:23:17.941Z,33.92
2017-10-05T22:25:57.226Z,33.93
2017-10-05T22:28:45.759Z,33.88
2017-10-05T22:31:25.298Z,33.87
2017-10-05T22:36:41.864Z,33.85
2017-10-05T22:39:18.562Z,33.85
2017-10-05T22:42:03.584Z,33.85
2017-10-05T22:47:50.773Z,33.75
2017-10-05T22:50:31.900Z,33.74
2017-10-05T22:53:10.276Z,33.74
2017-10-05T22:58:40.468Z,33.70
2017-10-05T23:01:20.836Z,33.72
2017-10-05T23:04:09.125Z,33.72
2017-10-05T23:06:56.209Z,33.70
2017-10-05T23:12:27.910Z,33.68
2017-10-05T23:15:13.006Z,33.67
2017-10-05T23:17:56.669Z,33.67
2017-10-05T23:20:36.055Z,33.64
2017-10-05T23:23:14.437Z,33.65
2017-10-05T23:25:57.705Z,33.66
2017-10-05T23:28:42.178Z,33.60
2017-10-05T23:31:15.241Z,33.66
2017-10-05T23:33:48.576Z,33.67
2017-10-05T23:36:27.379Z,33.63
2017-10-05T23:39:02.514Z,33.64
2017-10-05T23:41:42.887Z,33.64
2017-10-05T23:44:15.134Z,33.65
2017-10-05T23:46:55.890Z,33.66
2017-10-05T23:49:39.780Z,33.64
2017-10-05T23:52:11.381Z,33.64
2017-10-05T23:54:43.946Z,33.66
2017-10-05T23:57:16.263Z,33.66
2017-10-05T23:59:55.403Z,33.62
